createdAt,value
2023-07-31T00:05:11.511Z,5.60
2023-07-31T00:08:14.503Z,5.30
2023-07-31T00:11:18.913Z,5.00
2023-07-31T00:14:21.944Z,5.80
2023-07-31T00:17:25.111Z,4.80
2023-07-31T00:20:28.006Z,5.70
2023-07-31T00:23:31.166Z,5.20
2023-07-31T00:26:34.127Z,6.00
2023-07-31T00:29:37.107Z,5.20
2023-07-31T00:32:41.175Z,6.00
2023-07-31T00:35:44.232Z,6.40
2023-07-31T00:38:47.216Z,6.30
2023-07-31T00:41:50.163Z,6.60
2023-07-31T00:44:54.162Z,6.10
2023-07-31T00:47:58.575Z,6.20
2023-07-31T00:51:02.646Z,6.60
2023-07-31T00:54:05.637Z,6.80
2023-07-31T00:57:09.980Z,7.00
2023-07-31T01:00:13.686Z,6.90
2023-07-31T01:03:16.413Z,7.70
2023-07-31T01:06:22.308Z,7.00
2023-07-31T01:10:03.939Z,9.20
2023-07-31T01:13:07.746Z,7.00
2023-07-31T01:16:10.698Z,7.50
2023-07-31T01:19:16.206Z,6.90
2023-07-31T01:22:37.429Z,7.50
2023-07-31T01:26:06.835Z,8.00
2023-07-31T01:29:27.089Z,8.40
2023-07-31T01:32:31.201Z,8.10
2023-07-31T01:35:36.401Z,7.70
2023-07-31T01:38:39.324Z,7.30
2023-07-31T01:41:41.951Z,8.00
2023-07-31T01:44:44.776Z,8.70
2023-07-31T01:47:47.742Z,9.70
2023-07-31T01:50:50.957Z,9.60
2023-07-31T01:53:53.911Z,9.30
2023-07-31T01:56:57.294Z,10.40
2023-07-31T02:00:00.091Z,11.10
2023-07-31T02:05:30.984Z,12.30
2023-07-31T02:08:33.946Z,11.80
2023-07-31T02:11:35.868Z,12.00
2023-07-31T02:14:37.891Z,12.00
2023-07-31T02:17:39.896Z,12.50
2023-07-31T02:20:42.698Z,12.20
2023-07-31T02:23:44.656Z,11.60
2023-07-31T02:26:47.331Z,11.80
2023-07-31T02:29:49.920Z,12.10
2023-07-31T02:32:52.122Z,13.50
2023-07-31T02:35:54.252Z,13.20
2023-07-31T02:38:59.510Z,13.30
2023-07-31T02:42:02.463Z,13.20
2023-07-31T02:45:05.822Z,12.70
2023-07-31T02:48:07.967Z,13.50
2023-07-31T02:51:09.902Z,13.30
2023-07-31T02:54:11.996Z,13.30
2023-07-31T02:57:14.159Z,11.50
2023-07-31T03:00:16.369Z,13.10
2023-07-31T03:03:18.705Z,13.40
2023-07-31T03:06:21.484Z,13.40
2023-07-31T03:09:23.739Z,14.10
2023-07-31T03:12:25.909Z,20.10
2023-07-31T03:15:28.004Z,20.20
2023-07-31T03:18:30.180Z,15.90
2023-07-31T03:21:32.333Z,21.90
2023-07-31T03:24:40.434Z,27.40
2023-07-31T03:27:42.530Z,84.90
2023-07-31T03:30:46.095Z,38.00
2023-07-31T03:33:48.076Z,31.90
2023-07-31T03:36:50.754Z,42.00
2023-07-31T03:39:53.051Z,13.00
2023-07-31T03:42:55.059Z,18.40
2023-07-31T03:45:57.272Z,14.80
2023-07-31T03:49:00.454Z,14.50
2023-07-31T03:52:02.556Z,8.70
2023-07-31T03:55:05.466Z,17.60
2023-07-31T03:58:07.796Z,14.70
2023-07-31T04:05:14.439Z,52.80
2023-07-31T04:08:17.439Z,48.70
2023-07-31T04:11:20.282Z,91.90
2023-07-31T04:14:23.287Z,35.90
2023-07-31T04:17:26.173Z,27.90
2023-07-31T04:20:29.230Z,8.10
2023-07-31T04:23:32.195Z,9.10
2023-07-31T04:26:35.039Z,8.30
2023-07-31T04:29:38.116Z,9.30
2023-07-31T04:32:41.023Z,10.70
2023-07-31T04:35:53.673Z,9.30
2023-07-31T04:38:57.278Z,8.50
2023-07-31T04:42:00.408Z,12.70
2023-07-31T04:45:03.540Z,9.80
2023-07-31T04:48:07.675Z,9.90
2023-07-31T04:51:13.374Z,9.70
2023-07-31T04:54:19.172Z,10.60
2023-07-31T04:57:22.044Z,10.10
2023-07-31T05:00:25.026Z,10.10
2023-07-31T05:03:28.765Z,10.80
2023-07-31T05:06:32.321Z,10.70
2023-07-31T05:09:35.224Z,10.20
2023-07-31T05:12:38.311Z,9.40
2023-07-31T05:15:43.142Z,10.30
2023-07-31T05:18:46.158Z,9.50
2023-07-31T05:21:49.349Z,9.30
2023-07-31T05:24:52.336Z,8.90
2023-07-31T05:27:55.123Z,9.30
2023-07-31T05:31:05.972Z,9.50
2023-07-31T05:34:09.291Z,9.40
2023-07-31T05:37:13.449Z,9.40
2023-07-31T06:05:11.714Z,9.90
2023-07-31T06:08:15.639Z,10.90
2023-07-31T06:11:18.433Z,10.80
2023-07-31T06:14:21.610Z,12.00
2023-07-31T06:17:24.986Z,11.40
2023-07-31T06:20:27.959Z,9.90
2023-07-31T06:23:32.144Z,11.10
2023-07-31T06:26:34.839Z,11.10
2023-07-31T06:29:38.107Z,11.40
2023-07-31T06:32:42.430Z,11.10
2023-07-31T06:35:45.505Z,10.80
2023-07-31T06:38:48.387Z,11.00
2023-07-31T06:41:51.282Z,10.90
2023-07-31T06:44:53.986Z,11.30
2023-07-31T06:47:57.006Z,12.20
2023-07-31T06:50:59.868Z,13.00
2023-07-31T06:54:02.875Z,13.00
2023-07-31T06:57:06.516Z,13.10
2023-07-31T07:00:10.206Z,14.70
2023-07-31T07:03:13.533Z,14.90
2023-07-31T07:06:16.539Z,14.40
2023-07-31T07:09:19.697Z,14.50
2023-07-31T07:12:22.319Z,15.50
2023-07-31T07:19:13.309Z,18.50
2023-07-31T07:22:16.210Z,18.00
2023-07-31T07:25:19.661Z,17.70
2023-07-31T07:28:22.436Z,16.80
2023-07-31T07:31:25.585Z,18.50
2023-07-31T07:34:29.751Z,17.10
2023-07-31T07:37:33.905Z,18.20
2023-07-31T07:40:41.436Z,19.00
2023-07-31T07:43:44.125Z,21.90
2023-07-31T07:46:47.142Z,19.60
2023-07-31T07:49:53.273Z,20.50
2023-07-31T07:52:57.097Z,20.50
2023-07-31T07:55:59.982Z,20.80
2023-07-31T07:59:02.663Z,19.80
2023-07-31T08:02:05.686Z,21.00
2023-07-31T08:05:10.173Z,19.80
2023-07-31T08:08:19.187Z,20.30
2023-07-31T08:11:23.629Z,21.40
2023-07-31T08:14:26.609Z,19.50
2023-07-31T08:17:29.218Z,20.90
2023-07-31T08:20:31.980Z,19.60
2023-07-31T08:23:36.499Z,20.10
2023-07-31T08:26:39.578Z,20.50
2023-07-31T08:29:42.381Z,20.60
2023-07-31T08:32:44.985Z,20.10
2023-07-31T08:35:48.087Z,20.00
2023-07-31T08:38:51.654Z,19.50
2023-07-31T08:41:59.664Z,20.10
2023-07-31T08:45:03.165Z,19.40
2023-07-31T08:48:06.112Z,19.70
2023-07-31T08:51:08.935Z,19.50
2023-07-31T08:54:11.624Z,18.90
2023-07-31T08:57:16.359Z,19.30
2023-07-31T09:00:22.000Z,20.00
2023-07-31T09:03:28.003Z,19.30
2023-07-31T09:06:32.604Z,19.90
2023-07-31T09:09:35.274Z,18.50
2023-07-31T09:12:38.875Z,18.50
2023-07-31T09:15:44.012Z,17.70
2023-07-31T09:22:08.342Z,17.50
2023-07-31T09:25:31.183Z,15.00
2023-07-31T09:28:33.960Z,17.50
2023-07-31T09:31:42.876Z,15.60
2023-07-31T09:34:45.634Z,16.20
2023-07-31T09:37:57.392Z,15.80
2023-07-31T09:41:01.087Z,16.90
2023-07-31T09:44:03.972Z,17.00
2023-07-31T09:47:06.751Z,16.80
2023-07-31T09:50:10.554Z,20.60
2023-07-31T09:53:13.927Z,16.10
2023-07-31T09:56:18.655Z,16.00
2023-07-31T09:59:22.956Z,14.70
2023-07-31T10:05:46.408Z,15.00
2023-07-31T10:08:52.261Z,12.40
2023-07-31T10:12:01.920Z,12.80
2023-07-31T10:15:04.935Z,11.00
2023-07-31T10:18:07.784Z,11.40
2023-07-31T10:21:10.364Z,11.70
2023-07-31T10:24:12.728Z,12.60
2023-07-31T10:27:14.675Z,12.00
2023-07-31T10:30:20.366Z,11.70
2023-07-31T10:33:22.835Z,13.30
2023-07-31T10:36:24.823Z,12.10
2023-07-31T10:39:39.041Z,13.10
2023-07-31T10:42:49.372Z,12.50
2023-07-31T10:45:51.493Z,12.40
2023-07-31T10:49:02.251Z,12.40
2023-07-31T10:52:05.271Z,10.80
2023-07-31T10:55:24.503Z,12.00
2023-07-31T10:58:26.957Z,13.20
2023-07-31T11:01:53.131Z,11.10
2023-07-31T11:05:11.502Z,11.40
2023-07-31T11:08:23.590Z,11.90
2023-07-31T11:11:25.594Z,11.20
2023-07-31T11:14:27.932Z,11.80
2023-07-31T11:17:30.438Z,10.70
2023-07-31T11:20:33.701Z,11.20
2023-07-31T11:23:39.044Z,10.60
2023-07-31T11:26:52.610Z,11.60
2023-07-31T11:30:01.223Z,10.10
2023-07-31T11:33:04.879Z,10.10
2023-07-31T11:36:17.153Z,10.00
2023-07-31T11:39:19.023Z,10.50
2023-07-31T11:42:20.761Z,11.10
2023-07-31T11:45:27.187Z,13.00
2023-07-31T11:48:35.239Z,13.20
2023-07-31T11:51:37.306Z,13.30
2023-07-31T11:54:41.658Z,13.60
2023-07-31T11:57:45.637Z,13.70
2023-07-31T12:00:48.620Z,12.40
2023-07-31T12:03:51.803Z,12.70
2023-07-31T12:06:56.063Z,13.10
2023-07-31T12:10:00.378Z,15.70
2023-07-31T12:13:03.560Z,13.10
2023-07-31T12:16:06.208Z,17.40
2023-07-31T12:19:08.437Z,13.10
2023-07-31T12:22:17.157Z,13.40
2023-07-31T12:25:19.296Z,13.20
2023-07-31T12:28:23.468Z,16.00
2023-07-31T12:31:29.438Z,12.60
2023-07-31T12:34:31.289Z,14.40
2023-07-31T12:37:33.935Z,11.50
2023-07-31T12:40:38.792Z,11.80
2023-07-31T12:43:42.174Z,15.80
2023-07-31T12:46:44.249Z,14.70
2023-07-31T12:49:46.510Z,12.60
2023-07-31T12:52:48.455Z,11.10
2023-07-31T12:55:50.725Z,10.20
2023-07-31T12:58:52.734Z,11.80
2023-07-31T13:01:54.727Z,11.30
2023-07-31T13:04:56.932Z,12.30
2023-07-31T13:07:59.175Z,11.50
2023-07-31T13:11:01.479Z,11.20
2023-07-31T13:14:03.578Z,12.10
2023-07-31T13:17:07.589Z,11.70
2023-07-31T13:20:11.947Z,12.40
2023-07-31T13:23:14.263Z,12.30
2023-07-31T13:26:16.128Z,11.40
2023-07-31T13:29:18.106Z,11.60
2023-07-31T13:32:21.513Z,11.60
2023-07-31T13:35:23.358Z,9.80
2023-07-31T13:38:25.212Z,10.80
2023-07-31T13:41:27.612Z,11.40
2023-07-31T13:44:29.740Z,10.40
2023-07-31T13:47:32.993Z,10.40
2023-07-31T13:50:35.431Z,10.60
2023-07-31T13:53:37.884Z,10.30
2023-07-31T13:56:40.240Z,10.30
2023-07-31T13:59:42.606Z,10.30
2023-07-31T14:05:32.606Z,9.80
2023-07-31T14:08:34.842Z,9.90
2023-07-31T14:11:40.636Z,8.80
2023-07-31T14:14:45.098Z,10.10
2023-07-31T14:17:47.387Z,9.10
2023-07-31T14:20:50.184Z,10.30
2023-07-31T14:23:52.374Z,9.40
2023-07-31T14:26:54.467Z,9.40
2023-07-31T14:29:57.195Z,9.70
2023-07-31T14:33:01.449Z,8.90
2023-07-31T14:36:03.912Z,8.50
2023-07-31T14:39:06.313Z,9.80
2023-07-31T14:42:08.435Z,8.80
2023-07-31T14:45:11.416Z,9.10
2023-07-31T14:48:14.406Z,8.60
2023-07-31T14:51:18.363Z,8.40
2023-07-31T14:54:20.515Z,7.20
2023-07-31T14:57:23.084Z,8.40
2023-07-31T15:00:27.356Z,8.60
2023-07-31T15:03:31.129Z,8.20
2023-07-31T15:06:33.289Z,8.50
2023-07-31T15:09:35.550Z,8.80
2023-07-31T15:12:39.856Z,9.40
2023-07-31T15:15:42.157Z,8.50
2023-07-31T15:18:44.361Z,9.10
2023-07-31T15:21:46.490Z,8.70
2023-07-31T15:24:50.634Z,9.30
2023-07-31T15:27:53.099Z,9.10
2023-07-31T15:30:55.387Z,8.60
2023-07-31T15:33:57.472Z,8.40
2023-07-31T15:36:59.802Z,8.80
2023-07-31T15:40:02.074Z,8.90
2023-07-31T15:43:05.078Z,9.00
2023-07-31T15:46:07.111Z,8.70
2023-07-31T15:49:09.227Z,10.10
2023-07-31T15:52:11.649Z,8.60
2023-07-31T15:55:13.578Z,8.80
2023-07-31T15:58:16.764Z,10.80
2023-07-31T16:01:18.959Z,9.10
2023-07-31T16:04:21.266Z,9.30
2023-07-31T16:07:24.405Z,9.20
2023-07-31T16:10:26.870Z,9.10
2023-07-31T16:13:28.868Z,10.00
2023-07-31T16:16:31.209Z,10.20
2023-07-31T16:19:33.711Z,8.40
2023-07-31T16:22:35.749Z,10.40
2023-07-31T16:25:38.045Z,9.60
2023-07-31T16:28:40.162Z,10.00
2023-07-31T16:31:55.366Z,9.30
2023-07-31T16:34:59.912Z,10.10
2023-07-31T16:38:02.082Z,10.60
2023-07-31T16:41:04.006Z,10.90
2023-07-31T16:44:06.155Z,10.80
2023-07-31T16:47:08.301Z,10.80
2023-07-31T16:50:10.502Z,10.10
2023-07-31T16:53:12.930Z,10.10
2023-07-31T16:56:15.800Z,11.40
2023-07-31T16:59:18.829Z,11.50
2023-07-31T17:02:21.338Z,11.20
2023-07-31T17:05:24.695Z,10.40
2023-07-31T17:08:26.542Z,10.10
2023-07-31T17:11:28.752Z,9.40
2023-07-31T17:14:31.080Z,11.70
2023-07-31T17:17:33.384Z,10.10
2023-07-31T17:20:35.770Z,10.70
2023-07-31T17:23:38.200Z,9.70
2023-07-31T17:26:40.294Z,10.70
2023-07-31T17:29:42.459Z,11.30
2023-07-31T17:32:44.862Z,11.70
2023-07-31T17:35:47.308Z,12.90
2023-07-31T17:38:50.165Z,11.80
2023-07-31T17:41:52.665Z,11.10
2023-07-31T17:44:55.001Z,10.10
2023-07-31T17:47:57.445Z,11.40
2023-07-31T17:50:59.704Z,11.60
2023-07-31T17:54:02.033Z,11.10
2023-07-31T17:57:05.672Z,12.50
2023-07-31T18:00:08.509Z,12.60
2023-07-31T18:05:11.919Z,11.60
2023-07-31T18:08:15.026Z,13.00
2023-07-31T18:11:18.076Z,11.40
2023-07-31T18:14:23.202Z,12.30
2023-07-31T18:17:27.641Z,11.40
2023-07-31T18:20:30.909Z,11.40
2023-07-31T18:23:34.841Z,10.10
2023-07-31T18:26:38.898Z,9.80
2023-07-31T18:29:42.871Z,11.20
2023-07-31T18:46:17.085Z,12.30
2023-07-31T18:49:20.230Z,14.70
2023-07-31T18:52:23.183Z,14.10
2023-07-31T18:55:27.475Z,13.10
2023-07-31T18:58:31.268Z,12.70
2023-07-31T19:01:34.441Z,10.30
2023-07-31T19:04:37.443Z,11.40
2023-07-31T19:07:40.659Z,11.30
2023-07-31T19:10:44.565Z,11.60
2023-07-31T19:13:48.809Z,12.40
2023-07-31T19:16:52.242Z,11.60
2023-07-31T19:19:55.793Z,11.80
2023-07-31T19:23:00.238Z,13.60
2023-07-31T19:26:05.642Z,11.20
2023-07-31T19:29:08.967Z,12.90
2023-07-31T19:32:12.257Z,13.70
2023-07-31T19:35:16.769Z,12.40
2023-07-31T19:38:19.589Z,11.80
2023-07-31T19:41:22.659Z,12.90
2023-07-31T19:44:26.183Z,13.50
2023-07-31T19:47:29.678Z,12.50
2023-07-31T19:50:32.723Z,12.90
2023-07-31T19:53:35.535Z,14.20
2023-07-31T19:56:39.032Z,13.60
2023-07-31T19:59:42.262Z,14.90
2023-07-31T20:02:45.530Z,13.80
2023-07-31T20:05:50.163Z,14.40
2023-07-31T20:08:53.254Z,14.10
2023-07-31T20:11:57.395Z,14.80
2023-07-31T20:28:35.454Z,14.80
2023-07-31T20:31:41.378Z,15.20
2023-07-31T20:34:44.094Z,15.20
2023-07-31T20:37:47.005Z,15.00
2023-07-31T20:40:53.268Z,15.30
2023-07-31T20:43:56.203Z,15.50
2023-07-31T20:46:58.964Z,15.80
2023-07-31T20:50:01.792Z,15.80
2023-07-31T20:53:05.646Z,15.90
2023-07-31T20:56:08.579Z,15.30
2023-07-31T20:59:11.456Z,16.50
2023-07-31T21:02:14.791Z,18.40
2023-07-31T21:05:18.005Z,17.70
2023-07-31T21:08:21.087Z,15.80
2023-07-31T21:11:25.215Z,16.10
2023-07-31T21:14:27.964Z,16.10
2023-07-31T21:17:30.778Z,15.50
2023-07-31T21:20:33.516Z,16.50
2023-07-31T21:23:36.577Z,17.70
2023-07-31T21:26:41.071Z,16.30
2023-07-31T21:29:47.514Z,16.50
2023-07-31T21:32:50.506Z,16.50
2023-07-31T21:35:53.507Z,17.00
2023-07-31T21:38:56.688Z,15.50
2023-07-31T21:41:59.466Z,17.00
2023-07-31T21:45:02.148Z,17.90
2023-07-31T21:48:05.585Z,17.00
2023-07-31T21:51:09.424Z,19.30
2023-07-31T21:54:12.300Z,18.90
2023-07-31T21:57:15.063Z,18.70
2023-07-31T22:00:17.916Z,19.30
2023-07-31T22:05:11.802Z,19.00
2023-07-31T22:08:14.750Z,19.90
2023-07-31T22:11:17.716Z,20.40
2023-07-31T22:14:20.418Z,21.10
2023-07-31T22:17:23.416Z,28.20
2023-07-31T22:20:26.090Z,22.40
2023-07-31T22:23:28.917Z,25.10
2023-07-31T22:26:31.752Z,24.50
2023-07-31T22:29:34.711Z,26.70
2023-07-31T22:32:37.446Z,24.30
2023-07-31T22:35:40.426Z,24.10
2023-07-31T22:38:43.113Z,25.90
2023-07-31T22:41:45.737Z,28.20
2023-07-31T22:44:48.476Z,24.90
2023-07-31T22:47:51.290Z,22.00
2023-07-31T22:50:54.140Z,18.00
2023-07-31T22:53:56.832Z,20.20
2023-07-31T22:56:59.712Z,21.40
2023-07-31T23:00:02.583Z,21.80
2023-07-31T23:03:05.580Z,22.10
2023-07-31T23:06:08.691Z,22.00
2023-07-31T23:09:11.549Z,20.70
2023-07-31T23:12:14.492Z,21.40
2023-07-31T23:15:17.318Z,23.00
2023-07-31T23:18:20.114Z,22.20
2023-07-31T23:21:22.906Z,23.50
2023-07-31T23:24:25.977Z,23.00
2023-07-31T23:27:28.827Z,21.80
2023-07-31T23:30:32.079Z,22.00
2023-07-31T23:33:34.900Z,21.30
2023-07-31T23:43:48.469Z,19.60
2023-07-31T23:46:51.143Z,20.10
2023-07-31T23:49:54.237Z,21.60
2023-07-31T23:52:57.804Z,22.30
2023-07-31T23:56:01.061Z,21.60
2023-07-31T23:59:04.729Z,22.00
